Darstellungsparameter: Aktuell verwendete Einstellungen:
Skalierung der Graphiken ... ?
xyx+y,   Skalierungsfaktor:      Skalierung: Modus: x, Faktor: 1
Darstellungszeitraum ... ?
Vom - - bis: - -   Zeitraum: 17.11.2019 - 17.11.2019
Min/Max/Avg-Anzeige ... ?
Zeige MMA aktuell
Zeige MMA Monat
Zeige MMA alles
Zeige --A aktuell
Zeige --A Monat
Zeige --A alles
Keine MMA-Anzeige
MMA:
Keine MMA-Graphiken
MMA-Basis: 17.11.2019 - 17.11.2019
Quicknavigation für Darstellung... ?
Tage:      1T, 2T, 3T, 5T -1T -2T -3T -5T +1T +2T +3T +5T
Wochen: 1W, 2W, 3W -1W -2W -3W +1W +2W +3W
Monate: 1M, 3M, 6M -1M -3M -6M +1M +3M +6M
Jahre:    1J, 3J, 5J, 10J -1J -3J -5J -10J +1J +3J +5J +10J
Nutze für die Darstellung ... ?
Originaldaten oder Mittelwerte auf ...
Stundenbasis Tagesbasis Wochenbasis
Monatsbasis Jahresbasis      Datenbasis: Original-Daten
Darstellen als:
Statistik (Auto) Statistik J:M      Darstellung:
Zur Graphik,    zurück zur Übersicht aller Sensoren.
 
Tabellarische Datenbersicht: ?
 
Sensor: Nr:Datum:Temp:Feuchte:Taupunkt:
Aussen-T/F 1 17-11-2019 00:00:00 -0.1 C 96 % -0.66 C
2 17-11-2019 00:05:00 -0.1 C 96 % -0.66 C
3 17-11-2019 00:10:00 -0.2 C 96 % -0.76 C
4 17-11-2019 00:15:00 -0.1 C 96 % -0.66 C
5 17-11-2019 00:20:00 -0.1 C 96 % -0.66 C
6 17-11-2019 00:25:00 -0.2 C 96 % -0.76 C
7 17-11-2019 00:30:00 -0.3 C 96 % -0.86 C
8 17-11-2019 00:35:00 -0.4 C 96 % -0.96 C
9 17-11-2019 00:40:00 -0.4 C 96 % -0.96 C
10 17-11-2019 00:45:00 -0.5 C 96 % -1.06 C
11 17-11-2019 00:50:00 -0.6 C 96 % -1.16 C
12 17-11-2019 00:55:00 -0.6 C 96 % -1.16 C
13 17-11-2019 01:00:00 -0.7 C 96 % -1.26 C
14 17-11-2019 01:05:00 -0.7 C 96 % -1.26 C
15 17-11-2019 01:10:00 -0.8 C 96 % -1.36 C
16 17-11-2019 01:15:00 -0.7 C 96 % -1.26 C
17 17-11-2019 01:20:00 -0.7 C 96 % -1.26 C
18 17-11-2019 01:25:00 -0.6 C 96 % -1.16 C
19 17-11-2019 01:30:00 -0.7 C 96 % -1.26 C
20 17-11-2019 01:35:00 -0.7 C 96 % -1.26 C
21 17-11-2019 01:40:00 -0.7 C 96 % -1.26 C
22 17-11-2019 01:45:00 -0.7 C 96 % -1.26 C
23 17-11-2019 01:50:00 -0.7 C 96 % -1.26 C
24 17-11-2019 01:55:00 -0.6 C 97 % -1.02 C
25 17-11-2019 02:00:00 -0.6 C 96 % -1.16 C
Sensor: Nr:Datum:Temp:Feuchte:Taupunkt:
Aussen-T/F 26 17-11-2019 02:05:00 -0.5 C 96 % -1.06 C
27 17-11-2019 02:10:00 -0.4 C 97 % -0.82 C
28 17-11-2019 02:15:00 -0.3 C 97 % -0.72 C
29 17-11-2019 02:20:00 -0.3 C 97 % -0.72 C
30 17-11-2019 02:25:00 -0.2 C 97 % -0.62 C
31 17-11-2019 02:30:00 -0.1 C 97 % -0.52 C
32 17-11-2019 02:35:00 0 C 97 % -0.42 C
33 17-11-2019 02:40:00 0.1 C 97 % -0.32 C
34 17-11-2019 02:45:00 0.2 C 97 % -0.22 C
35 17-11-2019 02:50:00 0.3 C 97 % -0.12 C
36 17-11-2019 02:55:00 0.4 C 97 % -0.02 C
37 17-11-2019 03:00:00 0.4 C 97 % -0.02 C
38 17-11-2019 03:05:00 0.6 C 97 % 0.18 C
39 17-11-2019 03:10:00 0.7 C 97 % 0.28 C
40 17-11-2019 03:15:00 0.7 C 97 % 0.28 C
41 17-11-2019 03:20:00 0.7 C 97 % 0.28 C
42 17-11-2019 03:25:00 0.7 C 97 % 0.28 C
43 17-11-2019 03:30:00 0.8 C 97 % 0.38 C
44 17-11-2019 03:35:00 0.8 C 97 % 0.38 C
45 17-11-2019 03:40:00 0.9 C 97 % 0.48 C
46 17-11-2019 03:45:00 1 C 97 % 0.58 C
47 17-11-2019 03:50:00 1.1 C 97 % 0.68 C
48 17-11-2019 03:55:00 1.2 C 97 % 0.78 C
49 17-11-2019 04:00:00 1.2 C 97 % 0.78 C
50 17-11-2019 04:05:00 1.3 C 97 % 0.88 C
Sensor: Nr:Datum:Temp:Feuchte:Taupunkt:
Aussen-T/F 51 17-11-2019 04:10:00 1.3 C 97 % 0.88 C
52 17-11-2019 04:15:00 1.4 C 97 % 0.98 C
53 17-11-2019 04:20:00 1.4 C 97 % 0.98 C
54 17-11-2019 04:25:00 1.5 C 97 % 1.08 C
55 17-11-2019 04:30:00 1.6 C 97 % 1.18 C
56 17-11-2019 04:35:00 1.6 C 97 % 1.18 C
57 17-11-2019 04:40:00 1.6 C 97 % 1.18 C
58 17-11-2019 04:45:00 1.6 C 97 % 1.18 C
59 17-11-2019 04:50:00 1.6 C 97 % 1.18 C
60 17-11-2019 04:55:00 1.6 C 97 % 1.18 C
61 17-11-2019 05:00:00 1.6 C 97 % 1.18 C
62 17-11-2019 05:05:00 1.6 C 97 % 1.18 C
63 17-11-2019 05:10:00 1.6 C 97 % 1.18 C
64 17-11-2019 05:15:00 1.6 C 97 % 1.18 C
65 17-11-2019 05:20:00 1.6 C 97 % 1.18 C
66 17-11-2019 05:25:00 1.7 C 97 % 1.28 C
67 17-11-2019 05:30:00 1.7 C 97 % 1.28 C
68 17-11-2019 05:35:00 1.7 C 97 % 1.28 C
69 17-11-2019 05:40:00 1.7 C 97 % 1.28 C
70 17-11-2019 05:45:00 1.7 C 97 % 1.28 C
71 17-11-2019 05:50:00 1.7 C 97 % 1.28 C
72 17-11-2019 05:55:00 1.7 C 97 % 1.28 C
73 17-11-2019 06:00:00 1.7 C 97 % 1.28 C
74 17-11-2019 06:05:00 1.7 C 97 % 1.28 C
75 17-11-2019 06:10:00 1.7 C 97 % 1.28 C
Sensor: Nr:Datum:Temp:Feuchte:Taupunkt:
Aussen-T/F 76 17-11-2019 06:15:00 1.7 C 97 % 1.28 C
77 17-11-2019 06:20:00 1.7 C 97 % 1.28 C
78 17-11-2019 06:25:00 1.7 C 97 % 1.28 C
79 17-11-2019 06:30:00 1.7 C 97 % 1.28 C
80 17-11-2019 06:35:00 1.7 C 97 % 1.28 C
81 17-11-2019 06:40:00 1.7 C 97 % 1.28 C
82 17-11-2019 06:45:00 1.7 C 97 % 1.28 C
83 17-11-2019 06:50:00 1.7 C 97 % 1.28 C
84 17-11-2019 06:55:00 1.7 C 97 % 1.28 C
85 17-11-2019 07:00:00 1.8 C 97 % 1.38 C
86 17-11-2019 07:05:00 1.8 C 97 % 1.38 C
87 17-11-2019 07:10:00 1.8 C 97 % 1.38 C
88 17-11-2019 07:15:00 1.8 C 97 % 1.38 C
89 17-11-2019 07:20:00 1.8 C 97 % 1.38 C
90 17-11-2019 07:25:00 1.8 C 97 % 1.38 C
91 17-11-2019 07:30:00 1.8 C 97 % 1.38 C
92 17-11-2019 07:35:00 1.8 C 97 % 1.38 C
93 17-11-2019 07:40:00 1.8 C 97 % 1.38 C
94 17-11-2019 07:45:00 1.9 C 97 % 1.48 C
95 17-11-2019 07:50:00 1.9 C 97 % 1.48 C
96 17-11-2019 07:55:00 1.9 C 97 % 1.48 C
97 17-11-2019 08:00:00 1.9 C 97 % 1.48 C
98 17-11-2019 08:05:00 1.9 C 97 % 1.48 C
99 17-11-2019 08:10:00 1.9 C 97 % 1.48 C
100 17-11-2019 08:15:00 1.9 C 97 % 1.48 C
Sensor: Nr:Datum:Temp:Feuchte:Taupunkt:
Aussen-T/F 101 17-11-2019 08:20:00 1.9 C 97 % 1.48 C
102 17-11-2019 08:25:00 1.9 C 97 % 1.48 C
103 17-11-2019 08:30:00 1.9 C 97 % 1.48 C
104 17-11-2019 08:35:00 2 C 97 % 1.58 C
105 17-11-2019 08:40:00 2 C 97 % 1.58 C
106 17-11-2019 08:45:00 2.1 C 97 % 1.67 C
107 17-11-2019 08:50:00 2.1 C 97 % 1.67 C
108 17-11-2019 08:55:00 2.1 C 97 % 1.67 C
109 17-11-2019 09:00:00 2.2 C 97 % 1.77 C
110 17-11-2019 09:05:00 2.2 C 97 % 1.77 C
111 17-11-2019 09:10:00 2.2 C 97 % 1.77 C
112 17-11-2019 09:15:00 2.3 C 97 % 1.87 C
113 17-11-2019 09:20:00 2.3 C 97 % 1.87 C
114 17-11-2019 09:25:00 2.4 C 97 % 1.97 C
115 17-11-2019 09:30:00 2.5 C 98 % 2.22 C
116 17-11-2019 09:35:00 2.6 C 98 % 2.32 C
117 17-11-2019 09:40:00 2.6 C 97 % 2.17 C
118 17-11-2019 09:45:00 2.7 C 97 % 2.27 C
119 17-11-2019 09:50:00 2.8 C 97 % 2.37 C
120 17-11-2019 09:55:00 2.9 C 98 % 2.62 C
121 17-11-2019 10:00:00 2.9 C 98 % 2.62 C
122 17-11-2019 10:05:00 2.9 C 98 % 2.62 C
123 17-11-2019 10:10:00 3 C 98 % 2.72 C
124 17-11-2019 10:15:00 3.1 C 98 % 2.82 C
125 17-11-2019 10:20:00 3.1 C 98 % 2.82 C
Sensor: Nr:Datum:Temp:Feuchte:Taupunkt:
Aussen-T/F 126 17-11-2019 10:25:00 3.1 C 98 % 2.82 C
127 17-11-2019 10:30:00 3.2 C 98 % 2.92 C
128 17-11-2019 10:35:00 3.2 C 98 % 2.92 C
129 17-11-2019 10:40:00 3.3 C 98 % 3.01 C
130 17-11-2019 10:45:00 3.3 C 98 % 3.01 C
131 17-11-2019 10:50:00 3.3 C 98 % 3.01 C
132 17-11-2019 10:55:00 3.4 C 98 % 3.11 C
133 17-11-2019 11:00:00 3.4 C 98 % 3.11 C
134 17-11-2019 11:05:00 3.6 C 98 % 3.31 C
135 17-11-2019 11:10:00 3.8 C 98 % 3.51 C
136 17-11-2019 11:15:00 3.9 C 98 % 3.61 C
137 17-11-2019 11:20:00 3.9 C 98 % 3.61 C
138 17-11-2019 11:25:00 4 C 98 % 3.71 C
139 17-11-2019 11:30:00 4 C 98 % 3.71 C
140 17-11-2019 11:35:00 4 C 98 % 3.71 C
141 17-11-2019 11:40:00 4.1 C 98 % 3.81 C
142 17-11-2019 11:45:00 4.1 C 98 % 3.81 C
143 17-11-2019 11:50:00 4.1 C 98 % 3.81 C
144 17-11-2019 11:55:00 4.1 C 98 % 3.81 C
145 17-11-2019 12:00:00 4.2 C 98 % 3.91 C
146 17-11-2019 12:05:00 4.2 C 98 % 3.91 C
147 17-11-2019 12:10:00 4.2 C 98 % 3.91 C
148 17-11-2019 12:15:00 4.3 C 98 % 4.01 C
149 17-11-2019 12:20:00 4.3 C 98 % 4.01 C
150 17-11-2019 12:25:00 4.3 C 98 % 4.01 C
Sensor: Nr:Datum:Temp:Feuchte:Taupunkt:
Aussen-T/F 151 17-11-2019 12:30:00 4.3 C 98 % 4.01 C
152 17-11-2019 12:35:00 4.4 C 98 % 4.11 C
153 17-11-2019 12:40:00 4.4 C 98 % 4.11 C
154 17-11-2019 12:45:00 4.4 C 98 % 4.11 C
155 17-11-2019 12:50:00 4.4 C 98 % 4.11 C
156 17-11-2019 12:55:00 4.4 C 98 % 4.11 C
157 17-11-2019 13:00:00 4.6 C 98 % 4.31 C
158 17-11-2019 13:05:00 4.7 C 98 % 4.41 C
159 17-11-2019 13:10:00 4.8 C 98 % 4.51 C
160 17-11-2019 13:15:00 4.9 C 98 % 4.61 C
161 17-11-2019 13:20:00 4.9 C 98 % 4.61 C
162 17-11-2019 13:25:00 4.9 C 98 % 4.61 C
163 17-11-2019 13:30:00 4.9 C 98 % 4.61 C
164 17-11-2019 13:35:00 4.9 C 98 % 4.61 C
165 17-11-2019 13:40:00 5 C 98 % 4.71 C
166 17-11-2019 13:45:00 5.1 C 98 % 4.81 C
167 17-11-2019 13:50:00 5.1 C 98 % 4.81 C
168 17-11-2019 13:55:00 5.1 C 98 % 4.81 C
169 17-11-2019 14:00:00 5.2 C 98 % 4.91 C
170 17-11-2019 14:05:00 5.2 C 98 % 4.91 C
171 17-11-2019 14:10:00 5.2 C 98 % 4.91 C
172 17-11-2019 14:15:00 5.2 C 98 % 4.91 C
173 17-11-2019 14:20:00 5.2 C 98 % 4.91 C
174 17-11-2019 14:25:00 5.2 C 98 % 4.91 C
175 17-11-2019 14:30:00 5.2 C 98 % 4.91 C
Sensor: Nr:Datum:Temp:Feuchte:Taupunkt:
Aussen-T/F 176 17-11-2019 14:35:00 5.1 C 98 % 4.81 C
177 17-11-2019 14:40:00 5 C 98 % 4.71 C
178 17-11-2019 14:45:00 4.9 C 97 % 4.46 C
179 17-11-2019 14:50:00 4.9 C 97 % 4.46 C
180 17-11-2019 14:55:00 4.9 C 97 % 4.46 C
181 17-11-2019 15:00:00 4.9 C 97 % 4.46 C
182 17-11-2019 15:05:00 4.9 C 97 % 4.46 C
183 17-11-2019 15:10:00 5 C 97 % 4.56 C
184 17-11-2019 15:15:00 5 C 97 % 4.56 C
185 17-11-2019 15:20:00 5 C 97 % 4.56 C
186 17-11-2019 15:25:00 4.9 C 97 % 4.46 C
187 17-11-2019 15:30:00 4.9 C 97 % 4.46 C
188 17-11-2019 15:35:00 4.8 C 97 % 4.37 C
189 17-11-2019 15:40:00 4.8 C 97 % 4.37 C
190 17-11-2019 15:45:00 4.8 C 97 % 4.37 C
191 17-11-2019 15:50:00 4.8 C 97 % 4.37 C
192 17-11-2019 15:55:00 4.8 C 97 % 4.37 C
193 17-11-2019 16:00:00 4.7 C 97 % 4.27 C
194 17-11-2019 16:05:00 4.7 C 97 % 4.27 C
195 17-11-2019 16:10:00 4.8 C 97 % 4.37 C
196 17-11-2019 16:15:00 4.7 C 97 % 4.27 C
197 17-11-2019 16:20:00 4.7 C 97 % 4.27 C
198 17-11-2019 16:25:00 4.7 C 97 % 4.27 C
199 17-11-2019 16:30:00 4.7 C 97 % 4.27 C
200 17-11-2019 16:35:00 4.6 C 97 % 4.17 C
Sensor: Nr:Datum:Temp:Feuchte:Taupunkt:
Aussen-T/F 201 17-11-2019 16:40:00 4.6 C 97 % 4.17 C
202 17-11-2019 16:45:00 4.6 C 97 % 4.17 C
203 17-11-2019 16:50:00 4.5 C 97 % 4.07 C
204 17-11-2019 16:55:00 4.5 C 97 % 4.07 C
205 17-11-2019 17:00:00 4.5 C 97 % 4.07 C
206 17-11-2019 17:05:00 4.5 C 97 % 4.07 C
207 17-11-2019 17:10:00 4.5 C 97 % 4.07 C
208 17-11-2019 17:15:00 4.5 C 97 % 4.07 C
209 17-11-2019 17:20:00 4.4 C 97 % 3.97 C
210 17-11-2019 17:25:00 4.4 C 97 % 3.97 C
211 17-11-2019 17:30:00 4.4 C 97 % 3.97 C
212 17-11-2019 17:35:00 4.4 C 97 % 3.97 C
213 17-11-2019 17:40:00 4.4 C 97 % 3.97 C
214 17-11-2019 17:45:00 4.4 C 97 % 3.97 C
215 17-11-2019 17:50:00 4.4 C 97 % 3.97 C
216 17-11-2019 17:55:00 4.4 C 97 % 3.97 C
217 17-11-2019 18:00:00 4.5 C 97 % 4.07 C
218 17-11-2019 18:05:00 4.5 C 97 % 4.07 C
219 17-11-2019 18:10:00 4.6 C 97 % 4.17 C
220 17-11-2019 18:15:00 4.6 C 97 % 4.17 C
221 17-11-2019 18:20:00 4.6 C 97 % 4.17 C
222 17-11-2019 18:25:00 4.6 C 97 % 4.17 C
223 17-11-2019 18:30:00 4.7 C 97 % 4.27 C
224 17-11-2019 18:35:00 4.7 C 97 % 4.27 C
225 17-11-2019 18:40:00 4.7 C 97 % 4.27 C
Sensor: Nr:Datum:Temp:Feuchte:Taupunkt:
Aussen-T/F 226 17-11-2019 18:45:00 4.7 C 97 % 4.27 C
227 17-11-2019 18:50:00 4.7 C 97 % 4.27 C
228 17-11-2019 18:55:00 4.7 C 97 % 4.27 C
229 17-11-2019 19:00:00 4.7 C 97 % 4.27 C
230 17-11-2019 19:05:00 4.7 C 97 % 4.27 C
231 17-11-2019 19:10:00 4.7 C 97 % 4.27 C
232 17-11-2019 19:15:00 4.7 C 97 % 4.27 C
233 17-11-2019 19:20:00 4.7 C 97 % 4.27 C
234 17-11-2019 19:25:00 4.7 C 97 % 4.27 C
235 17-11-2019 19:30:00 4.7 C 97 % 4.27 C
236 17-11-2019 19:35:00 4.7 C 97 % 4.27 C
237 17-11-2019 19:40:00 4.7 C 97 % 4.27 C
238 17-11-2019 19:45:00 4.7 C 97 % 4.27 C
239 17-11-2019 19:50:00 4.7 C 97 % 4.27 C
240 17-11-2019 19:55:00 4.7 C 97 % 4.27 C
241 17-11-2019 20:00:00 4.7 C 97 % 4.27 C
242 17-11-2019 20:05:00 4.7 C 97 % 4.27 C
243 17-11-2019 20:10:00 4.7 C 97 % 4.27 C
244 17-11-2019 20:15:00 4.7 C 97 % 4.27 C
245 17-11-2019 20:20:00 4.7 C 97 % 4.27 C
246 17-11-2019 20:25:00 4.7 C 97 % 4.27 C
247 17-11-2019 20:30:00 4.7 C 97 % 4.27 C
248 17-11-2019 20:35:00 4.7 C 97 % 4.27 C
249 17-11-2019 20:40:00 4.7 C 97 % 4.27 C
250 17-11-2019 20:45:00 4.8 C 97 % 4.37 C
Sensor: Nr:Datum:Temp:Feuchte:Taupunkt:
Aussen-T/F 251 17-11-2019 20:50:00 4.7 C 97 % 4.27 C
252 17-11-2019 20:55:00 4.8 C 97 % 4.37 C
253 17-11-2019 21:00:00 4.7 C 97 % 4.27 C
254 17-11-2019 21:05:00 4.7 C 97 % 4.27 C
255 17-11-2019 21:10:00 4.7 C 97 % 4.27 C
256 17-11-2019 21:15:00 4.7 C 97 % 4.27 C
257 17-11-2019 21:20:00 4.7 C 97 % 4.27 C
258 17-11-2019 21:25:00 4.7 C 97 % 4.27 C
259 17-11-2019 21:30:00 4.7 C 97 % 4.27 C
260 17-11-2019 21:35:00 4.7 C 97 % 4.27 C
261 17-11-2019 21:40:00 4.7 C 97 % 4.27 C
262 17-11-2019 21:45:00 4.7 C 97 % 4.27 C
263 17-11-2019 21:50:00 4.7 C 97 % 4.27 C
264 17-11-2019 21:55:00 4.7 C 97 % 4.27 C
265 17-11-2019 22:00:00 4.7 C 97 % 4.27 C
266 17-11-2019 22:05:00 4.7 C 97 % 4.27 C
267 17-11-2019 22:10:00 4.7 C 97 % 4.27 C
268 17-11-2019 22:15:00 4.7 C 97 % 4.27 C
269 17-11-2019 22:20:00 4.7 C 97 % 4.27 C
270 17-11-2019 22:25:00 4.7 C 97 % 4.27 C
271 17-11-2019 22:30:00 4.7 C 97 % 4.27 C
272 17-11-2019 22:35:00 4.7 C 97 % 4.27 C
273 17-11-2019 22:40:00 4.7 C 97 % 4.27 C
274 17-11-2019 22:45:00 4.7 C 97 % 4.27 C
275 17-11-2019 22:50:00 4.7 C 97 % 4.27 C
Sensor: Nr:Datum:Temp:Feuchte:Taupunkt:
Aussen-T/F 276 17-11-2019 22:55:00 4.7 C 97 % 4.27 C
277 17-11-2019 23:00:00 4.7 C 97 % 4.27 C
278 17-11-2019 23:05:00 4.7 C 97 % 4.27 C
279 17-11-2019 23:10:00 4.7 C 97 % 4.27 C
280 17-11-2019 23:15:00 4.6 C 97 % 4.17 C
281 17-11-2019 23:20:00 4.6 C 97 % 4.17 C
282 17-11-2019 23:25:00 4.7 C 97 % 4.27 C
283 17-11-2019 23:30:00 4.6 C 97 % 4.17 C
284 17-11-2019 23:35:00 4.6 C 97 % 4.17 C
285 17-11-2019 23:40:00 4.6 C 97 % 4.17 C
286 17-11-2019 23:45:00 4.6 C 97 % 4.17 C
287 17-11-2019 23:50:00 4.6 C 97 % 4.17 C
288 17-11-2019 23:55:00 4.5 C 97 % 4.07 C

Legende:
   Min
   Max


Maximal/Minimal-Werte vom 17.11.2019 - 17.11.2019

Sensor Min Max Avg
Temp
(Aussen-T/F)
-0.8 °C
17-11-2019  01:10:00
5.2 °C
17-11-2019  14:00:00
3.09 °C
Feuchte
(Aussen-T/F)
96 %
17-11-2019  00:00:00
98 %
17-11-2019  09:30:00
97.12 %
Taupunkt
(Aussen-T/F)
-1.36 C
17-11-2019  01:10:00
4.91 C
17-11-2019  14:00:00
2.67 C

Die Daten stammen von einer Davis Vantage Pro 2 Wetter-Station und werden unter Linux mit der Software wview2wettercgi und aufbereitet. Alle Angaben erfolgen ohne Gewähr für ihre Vollständigkeit oder Richtigkeit.
Kontakt: Rainer Krienke krienke@uni-koblenz.de . Meine Webseiten an der Uni Koblenz oder privat.
Version: $Revision: 0.78 $